createdAt,value
2022-08-17T04:30:50.459Z,70.69
2022-08-17T04:31:50.410Z,71.09
2022-08-17T04:33:00.802Z,71.69
2022-08-17T04:33:51.382Z,71.69
2022-08-17T04:34:50.377Z,71.79
2022-08-17T04:35:50.371Z,72.03
2022-08-17T04:36:50.649Z,72.13
2022-08-17T04:37:50.345Z,71.73
2022-08-17T04:38:50.337Z,72.42
2022-08-17T04:39:50.417Z,72.33
2022-08-17T04:40:50.337Z,72.42
2022-08-17T04:41:50.329Z,71.62
2022-08-17T04:42:50.421Z,71.73
2022-08-17T04:43:50.295Z,72.23
2022-08-17T04:44:50.285Z,71.83
2022-08-17T04:45:55.700Z,71.42
2022-08-17T04:46:51.257Z,71.53
2022-08-17T04:47:50.242Z,71.83
2022-08-17T04:48:50.250Z,72.23
2022-08-17T04:49:50.236Z,72.42
2022-08-17T04:50:50.206Z,72.23
2022-08-17T04:51:56.251Z,71.73
2022-08-17T04:52:51.184Z,72.92
2022-08-17T04:53:54.642Z,73.03
2022-08-17T04:54:50.157Z,72.63
2022-08-17T04:55:50.157Z,72.53
2022-08-17T04:56:50.143Z,72.92
2022-08-17T04:57:50.203Z,73.26
2022-08-17T04:58:50.280Z,72.96
2022-08-17T04:59:50.111Z,72.86
2022-08-17T05:00:50.246Z,73.16
2022-08-17T05:01:50.086Z,73.26
2022-08-17T05:02:50.651Z,73.46
2022-08-17T05:03:50.067Z,73.33
2022-08-17T05:04:50.046Z,71.62
2022-08-17T05:05:50.129Z,72.46
2022-08-17T05:06:50.030Z,72.13
2022-08-17T05:07:50.019Z,72.06
2022-08-17T05:08:50.033Z,71.92
2022-08-17T05:09:50.041Z,72.92
2022-08-17T05:10:49.999Z,72.83
2022-08-17T05:11:49.976Z,71.92
2022-08-17T05:12:50.192Z,71.83
2022-08-17T05:13:49.973Z,72.33
2022-08-17T05:14:49.988Z,72.33
2022-08-17T05:15:49.934Z,71.83
2022-08-17T05:16:49.933Z,71.73
2022-08-17T05:17:49.954Z,71.73
2022-08-17T05:18:49.908Z,72.19
2022-08-17T05:19:52.001Z,72.23
2022-08-17T05:20:49.889Z,72.59
2022-08-17T05:21:49.882Z,72.09
2022-08-17T05:22:49.976Z,71.29
2022-08-17T05:23:54.736Z,70.69
2022-08-17T05:24:54.040Z,70.59
2022-08-17T05:25:50.433Z,70.99
2022-08-17T05:26:49.818Z,70.69
2022-08-17T05:27:49.797Z,70.26
2022-08-17T05:28:49.799Z,70.19
2022-08-17T05:29:49.791Z,70.46
2022-08-17T05:30:49.792Z,70.16
2022-08-17T05:31:49.801Z,70.56
2022-08-17T05:32:49.872Z,70.66
2022-08-17T05:33:50.025Z,69.96
2022-08-17T05:34:49.734Z,70.16
2022-08-17T05:35:49.744Z,70.96
2022-08-17T05:36:49.702Z,70.86
2022-08-17T05:37:49.687Z,70.76
2022-08-17T05:38:49.706Z,71.22
2022-08-17T05:39:49.751Z,71.46
2022-08-17T05:40:49.675Z,71.06
2022-08-17T05:41:49.663Z,70.96
2022-08-17T05:42:49.854Z,71.16
2022-08-17T05:43:54.301Z,71.56
2022-08-17T05:44:50.625Z,71.29
2022-08-17T05:45:55.166Z,70.59
2022-08-17T05:46:50.607Z,71.16
2022-08-17T05:47:49.583Z,71.36
2022-08-17T05:48:49.573Z,71.66
2022-08-17T05:49:49.567Z,70.76
2022-08-17T05:50:49.554Z,69.16
2022-08-17T05:51:49.559Z,70.06
2022-08-17T05:52:49.778Z,69.73
2022-08-17T05:53:49.534Z,69.32
2022-08-17T05:54:49.514Z,69.62
2022-08-17T05:55:49.504Z,70.12
2022-08-17T05:56:49.506Z,69.53
2022-08-17T05:57:53.811Z,69.73
2022-08-17T05:58:50.479Z,69.82
2022-08-17T05:59:49.467Z,69.13
2022-08-17T06:00:49.552Z,68.73
2022-08-17T06:01:49.447Z,70.03
2022-08-17T06:02:49.705Z,69.23
2022-08-17T06:03:49.407Z,68.99
2022-08-17T06:04:49.410Z,68.82
2022-08-17T06:05:49.405Z,68.73
2022-08-17T06:06:49.383Z,69.20
2022-08-17T06:07:49.375Z,68.99
2022-08-17T06:08:51.767Z,68.79
2022-08-17T06:09:49.346Z,68.29
2022-08-17T06:10:49.337Z,68.46
2022-08-17T06:11:53.667Z,68.29
2022-08-17T06:12:49.481Z,68.19
2022-08-17T06:13:49.326Z,68.26
2022-08-17T06:14:49.293Z,68.56
2022-08-17T06:15:49.280Z,68.49
2022-08-17T06:16:49.272Z,68.06
2022-08-17T06:17:49.284Z,67.66
2022-08-17T06:18:49.250Z,67.90
2022-08-17T06:19:49.254Z,67.57
2022-08-17T06:20:49.275Z,67.57
2022-08-17T06:21:49.224Z,67.66
2022-08-17T06:22:49.532Z,67.57
2022-08-17T06:23:49.201Z,67.36
2022-08-17T06:24:49.190Z,67.96
2022-08-17T06:25:49.204Z,67.66
2022-08-17T06:26:49.179Z,67.57
2022-08-17T06:27:53.834Z,68.16
2022-08-17T06:28:49.154Z,68.36
2022-08-17T06:29:49.132Z,68.63
2022-08-17T06:30:59.195Z,68.46
2022-08-17T06:31:50.146Z,67.46
2022-08-17T06:32:49.374Z,67.26
2022-08-17T06:33:49.138Z,67.76
2022-08-17T06:34:49.120Z,67.36
2022-08-17T06:35:49.061Z,67.76
2022-08-17T06:36:49.091Z,67.76
2022-08-17T06:37:49.045Z,67.63
2022-08-17T06:38:49.033Z,68.36
2022-08-17T06:39:49.110Z,68.13
2022-08-17T06:40:49.008Z,68.06
2022-08-17T06:41:49.001Z,68.06
2022-08-17T06:43:02.926Z,67.83
2022-08-17T06:43:49.975Z,68.43
2022-08-17T06:44:51.304Z,68.63
2022-08-17T06:45:48.967Z,68.33
2022-08-17T06:46:48.952Z,68.13
2022-08-17T06:47:48.949Z,68.49
2022-08-17T06:48:48.924Z,67.60
2022-08-17T06:49:54.664Z,68.10
2022-08-17T06:50:49.904Z,69.09
2022-08-17T06:51:48.890Z,68.90
2022-08-17T06:52:48.971Z,69.09
2022-08-17T06:53:48.888Z,69.59
2022-08-17T06:54:48.874Z,69.09
2022-08-17T06:55:48.875Z,69.49
2022-08-17T06:56:53.511Z,69.39
2022-08-17T06:57:49.832Z,69.79
2022-08-17T06:58:48.871Z,69.79
2022-08-17T06:59:54.867Z,68.90
2022-08-17T07:00:49.824Z,68.99
2022-08-17T07:01:48.788Z,68.96
2022-08-17T07:02:51.185Z,68.00
2022-08-17T07:03:48.782Z,67.96
2022-08-17T07:04:48.791Z,68.16
2022-08-17T07:05:48.750Z,68.66
2022-08-17T07:06:48.726Z,68.96
2022-08-17T07:07:48.716Z,68.86
2022-08-17T07:08:48.710Z,69.06
2022-08-17T07:09:48.698Z,69.62
2022-08-17T07:10:48.704Z,69.43
2022-08-17T07:11:48.675Z,69.53
2022-08-17T07:12:48.895Z,69.13
2022-08-17T07:13:51.126Z,68.93
2022-08-17T07:14:48.654Z,67.73
2022-08-17T07:15:48.640Z,68.86
2022-08-17T07:16:48.639Z,69.13
2022-08-17T07:17:48.657Z,69.36
2022-08-17T07:18:48.615Z,69.66
2022-08-17T07:19:48.601Z,70.12
2022-08-17T07:20:48.584Z,69.46
2022-08-17T07:21:48.588Z,69.53
2022-08-17T07:22:50.346Z,68.53
2022-08-17T07:23:49.551Z,69.53
2022-08-17T07:24:48.531Z,70.52
2022-08-17T07:25:48.523Z,68.93
2022-08-17T07:26:48.509Z,68.43
2022-08-17T07:27:48.531Z,68.23
2022-08-17T07:28:48.493Z,67.33
2022-08-17T07:29:48.486Z,67.73
2022-08-17T07:30:48.461Z,67.54
2022-08-17T07:31:48.487Z,68.00
2022-08-17T07:32:48.445Z,68.70
2022-08-17T07:33:48.438Z,68.99
2022-08-17T07:34:48.426Z,69.39
2022-08-17T07:35:48.518Z,68.70
2022-08-17T07:36:48.404Z,68.70
2022-08-17T07:37:48.643Z,67.47
2022-08-17T07:38:48.386Z,67.30
2022-08-17T07:40:15.235Z,67.60
2022-08-17T07:40:49.461Z,67.77
2022-08-17T07:41:53.417Z,67.77
2022-08-17T07:42:49.339Z,67.40
2022-08-17T07:43:48.381Z,67.47
2022-08-17T07:44:48.326Z,67.17
2022-08-17T07:45:48.304Z,67.50
2022-08-17T07:46:48.290Z,67.37
2022-08-17T07:47:48.295Z,67.57
2022-08-17T07:48:48.298Z,67.50
2022-08-17T07:49:48.260Z,67.77
2022-08-17T07:50:49.467Z,68.16
2022-08-17T07:51:48.241Z,68.37
2022-08-17T07:52:52.206Z,67.67
2022-08-17T07:53:48.231Z,67.37
2022-08-17T07:54:48.212Z,66.77
2022-08-17T07:55:48.198Z,67.27
2022-08-17T07:56:48.200Z,67.97
2022-08-17T07:57:48.174Z,67.77
2022-08-17T07:58:48.166Z,67.37
2022-08-17T07:59:48.156Z,67.67
2022-08-17T08:00:48.146Z,67.17
2022-08-17T08:01:48.211Z,68.76
2022-08-17T08:02:49.151Z,68.56
2022-08-17T08:03:52.730Z,67.67
2022-08-17T08:05:03.592Z,67.57
2022-08-17T08:05:50.195Z,67.50
2022-08-17T08:06:48.085Z,67.40
2022-08-17T08:07:48.067Z,68.20
2022-08-17T08:08:48.089Z,67.67
2022-08-17T08:09:48.053Z,67.97
2022-08-17T08:10:48.048Z,68.30
2022-08-17T08:11:48.027Z,68.16
2022-08-17T08:12:48.012Z,68.07
2022-08-17T08:13:49.024Z,67.57
2022-08-17T08:14:47.989Z,67.27
2022-08-17T08:15:53.741Z,67.37
2022-08-17T08:16:49.096Z,66.67
2022-08-17T08:17:47.952Z,67.27
2022-08-17T08:18:55.826Z,67.86
2022-08-17T08:19:48.959Z,67.30
2022-08-17T08:20:52.059Z,67.67
2022-08-17T08:21:47.918Z,67.50
2022-08-17T08:22:47.922Z,67.90
2022-08-17T08:23:47.901Z,67.50
2022-08-17T08:24:47.888Z,67.90
2022-08-17T08:25:50.894Z,68.00
2022-08-17T08:26:48.866Z,69.32
2022-08-17T08:27:47.881Z,69.62
2022-08-17T08:28:47.838Z,68.93
2022-08-17T08:29:47.848Z,68.73
2022-08-17T08:30:47.817Z,68.56
2022-08-17T08:31:47.816Z,69.16
2022-08-17T08:32:47.818Z,69.36
2022-08-17T08:33:47.794Z,69.16
2022-08-17T08:35:01.490Z,69.36
2022-08-17T08:35:48.758Z,69.53
2022-08-17T08:37:16.028Z,70.06
2022-08-17T08:37:48.878Z,69.82
2022-08-17T08:38:47.736Z,70.06
2022-08-17T08:39:47.791Z,70.56
2022-08-17T08:40:47.720Z,70.86
2022-08-17T08:41:47.697Z,69.76
2022-08-17T08:42:47.704Z,70.56
2022-08-17T08:43:52.654Z,71.35
2022-08-17T08:45:04.128Z,69.86
2022-08-17T08:45:48.680Z,69.96
2022-08-17T08:46:47.652Z,71.05
2022-08-17T08:47:47.684Z,71.65
2022-08-17T08:48:56.627Z,71.25
2022-08-17T08:50:05.321Z,71.05
2022-08-17T08:50:48.611Z,71.55
2022-08-17T08:51:47.590Z,72.55
2022-08-17T08:52:47.595Z,71.65
2022-08-17T08:53:47.610Z,71.75
2022-08-17T08:54:47.580Z,71.25
2022-08-17T08:55:47.569Z,71.25
2022-08-17T08:57:11.896Z,71.05
2022-08-17T08:57:48.529Z,70.86
2022-08-17T08:58:47.520Z,70.65
2022-08-17T08:59:57.729Z,71.35
2022-08-17T09:00:48.518Z,70.95
2022-08-17T09:01:47.603Z,71.25
2022-08-17T09:02:47.470Z,71.39
2022-08-17T09:03:53.203Z,71.78
2022-08-17T09:05:12.912Z,71.55
2022-08-17T09:05:48.544Z,71.85
2022-08-17T09:06:47.431Z,71.45
2022-08-17T09:07:47.416Z,71.19
2022-08-17T09:08:47.423Z,70.69
2022-08-17T09:09:47.418Z,72.58
2022-08-17T09:10:47.417Z,72.58
2022-08-17T09:12:02.123Z,72.58
2022-08-17T09:12:48.365Z,72.88
2022-08-17T09:13:54.465Z,71.59
2022-08-17T09:14:48.367Z,71.48
2022-08-17T09:15:47.379Z,72.28
2022-08-17T09:16:47.354Z,72.19
2022-08-17T09:17:47.399Z,74.38
2022-08-17T09:19:03.500Z,72.49
2022-08-17T09:19:48.291Z,73.98
2022-08-17T09:20:50.196Z,73.72
2022-08-17T09:21:48.577Z,73.98
2022-08-17T09:22:47.258Z,73.78
2022-08-17T09:23:47.247Z,75.01
2022-08-17T09:24:47.233Z,75.41
2022-08-17T09:25:47.229Z,75.78
2022-08-17T09:26:47.252Z,75.91
2022-08-17T09:27:47.280Z,75.51
2022-08-17T09:28:47.189Z,74.62
2022-08-17T09:29:47.190Z,76.51
2022-08-17T09:30:47.194Z,76.87
2022-08-17T09:31:49.544Z,76.04
2022-08-17T09:32:47.166Z,75.54
2022-08-17T09:33:47.143Z,73.85
2022-08-17T09:34:47.132Z,74.30
2022-08-17T09:35:47.116Z,73.18
2022-08-17T09:36:47.115Z,72.34
2022-08-17T09:37:47.107Z,71.48
2022-08-17T09:38:47.086Z,70.75
2022-08-17T09:39:47.129Z,69.23
2022-08-17T09:40:47.076Z,68.53
2022-08-17T09:41:49.018Z,68.60
2022-08-17T09:42:47.044Z,67.97
2022-08-17T09:43:47.035Z,67.38
2022-08-17T09:44:47.019Z,66.55
2022-08-17T09:45:47.031Z,65.46
2022-08-17T09:46:47.000Z,65.66
2022-08-17T09:47:47.034Z,64.86
2022-08-17T09:48:46.986Z,64.67
2022-08-17T09:49:47.004Z,65.49
2022-08-17T09:51:04.074Z,65.59
2022-08-17T09:51:47.948Z,65.89
2022-08-17T09:52:46.950Z,65.42
2022-08-17T09:53:46.937Z,66.02
2022-08-17T09:54:46.911Z,66.44
2022-08-17T09:55:46.907Z,66.55
2022-08-17T09:56:56.440Z,67.27
2022-08-17T09:57:47.905Z,67.47
2022-08-17T09:58:46.870Z,67.27
2022-08-17T09:59:46.861Z,67.27
2022-08-17T10:00:46.905Z,67.44
2022-08-17T10:01:46.873Z,65.62
2022-08-17T10:02:46.834Z,65.49
2022-08-17T10:03:46.823Z,65.99
2022-08-17T10:04:46.814Z,64.70
2022-08-17T10:05:46.803Z,65.46
2022-08-17T10:06:46.788Z,63.57
2022-08-17T10:07:46.883Z,64.40
2022-08-17T10:08:46.771Z,62.62
2022-08-17T10:09:46.761Z,63.09
2022-08-17T10:10:56.696Z,63.78
2022-08-17T10:11:48.280Z,62.96
2022-08-17T10:12:47.202Z,61.27
2022-08-17T10:13:52.778Z,62.04
2022-08-17T10:14:53.467Z,61.24
2022-08-17T10:15:47.683Z,60.92
2022-08-17T10:16:46.681Z,59.73
2022-08-17T10:17:46.739Z,60.22
2022-08-17T10:18:46.658Z,59.76
2022-08-17T10:19:46.647Z,60.68
2022-08-17T10:20:46.649Z,61.07
2022-08-17T10:21:46.627Z,60.35
2022-08-17T10:22:51.162Z,59.69
2022-08-17T10:23:46.601Z,59.79
2022-08-17T10:25:21.507Z,60.75
2022-08-17T10:25:55.191Z,60.28
2022-08-17T10:26:56.364Z,61.10
2022-08-17T10:27:47.560Z,61.30
2022-08-17T10:28:46.570Z,60.81
2022-08-17T10:29:48.923Z,60.11
2022-08-17T10:30:46.534Z,60.94
2022-08-17T10:31:46.537Z,60.91
2022-08-17T10:32:46.507Z,61.10
2022-08-17T10:33:46.514Z,60.97
2022-08-17T10:34:46.488Z,60.28
2022-08-17T10:35:46.485Z,60.48
2022-08-17T10:36:46.491Z,60.28
2022-08-17T10:37:46.599Z,59.46
2022-08-17T10:38:46.449Z,59.95
2022-08-17T10:39:52.113Z,59.56
2022-08-17T10:40:47.424Z,60.25
2022-08-17T10:41:46.440Z,60.55
2022-08-17T10:42:46.402Z,60.19
2022-08-17T10:44:37.251Z,59.79
2022-08-17T10:44:47.397Z,60.19
2022-08-17T10:45:47.153Z,60.71
2022-08-17T10:46:46.361Z,60.61
2022-08-17T10:47:55.172Z,60.78
2022-08-17T10:48:47.344Z,60.91
2022-08-17T10:49:46.351Z,61.04
2022-08-17T10:50:46.344Z,60.74
2022-08-17T10:51:46.314Z,61.76
2022-08-17T10:52:46.302Z,61.33
2022-08-17T10:53:46.301Z,61.70
2022-08-17T10:54:46.280Z,61.00
2022-08-17T10:55:46.276Z,61.07
2022-08-17T10:56:46.251Z,60.88
2022-08-17T10:57:46.242Z,60.28
2022-08-17T10:58:46.252Z,60.08
2022-08-17T10:59:46.232Z,60.97
2022-08-17T11:00:46.291Z,60.58
2022-08-17T11:01:46.209Z,61.27
2022-08-17T11:02:46.318Z,60.48
2022-08-17T11:03:46.181Z,60.81
2022-08-17T11:04:46.173Z,61.80
2022-08-17T11:05:46.154Z,61.63
2022-08-17T11:06:46.155Z,61.83
2022-08-17T11:07:46.151Z,62.55
2022-08-17T11:08:46.144Z,63.42
2022-08-17T11:09:46.116Z,62.62
2022-08-17T11:10:51.696Z,61.83
2022-08-17T11:11:46.120Z,61.93
2022-08-17T11:12:46.082Z,61.83
2022-08-17T11:13:46.072Z,62.72
2022-08-17T11:14:46.062Z,62.02
2022-08-17T11:15:46.051Z,62.15
2022-08-17T11:16:46.069Z,62.88
2022-08-17T11:17:46.029Z,63.24
2022-08-17T11:18:46.062Z,62.75
2022-08-17T11:19:46.010Z,63.64
2022-08-17T11:20:45.994Z,63.45
2022-08-17T11:21:45.993Z,63.18
2022-08-17T11:22:45.980Z,63.34
2022-08-17T11:23:45.978Z,63.28
2022-08-17T11:24:45.958Z,63.87
2022-08-17T11:25:45.954Z,63.64
2022-08-17T11:26:45.934Z,63.64
2022-08-17T11:27:45.953Z,62.68
2022-08-17T11:28:45.921Z,63.28
2022-08-17T11:29:48.380Z,63.08
2022-08-17T11:30:45.895Z,63.08
2022-08-17T11:31:45.905Z,63.67
2022-08-17T11:32:47.825Z,63.84
2022-08-17T11:33:45.874Z,63.02
2022-08-17T11:34:45.859Z,61.43
2022-08-17T11:35:45.837Z,61.83
2022-08-17T11:36:45.846Z,61.30
2022-08-17T11:37:45.818Z,61.54
2022-08-17T11:38:45.807Z,61.34
2022-08-17T11:39:45.913Z,60.69
2022-08-17T11:40:45.811Z,60.76
2022-08-17T11:41:45.779Z,59.55
2022-08-17T11:42:45.763Z,58.23
2022-08-17T11:43:45.772Z,58.75
2022-08-17T11:44:45.744Z,57.57
2022-08-17T11:45:45.734Z,58.29
2022-08-17T11:46:45.733Z,58.05
2022-08-17T11:48:02.251Z,59.27
2022-08-17T11:48:46.698Z,59.95
2022-08-17T11:49:45.707Z,59.95
2022-08-17T11:50:45.711Z,59.53
2022-08-17T11:51:45.670Z,59.73
2022-08-17T11:52:46.711Z,59.08
2022-08-17T11:53:45.648Z,59.11
2022-08-17T11:54:45.634Z,58.12
2022-08-17T11:55:45.619Z,58.12
2022-08-17T11:56:45.661Z,58.49
2022-08-17T11:57:45.605Z,58.42
2022-08-17T11:58:45.596Z,58.51
2022-08-17T11:59:45.606Z,59.11
2022-08-17T12:00:45.585Z,59.70
2022-08-17T12:01:45.555Z,59.73
2022-08-17T12:02:48.122Z,59.01
2022-08-17T12:03:54.124Z,58.12
2022-08-17T12:04:46.605Z,58.22
2022-08-17T12:05:45.516Z,59.01
2022-08-17T12:06:45.504Z,57.92
2022-08-17T12:07:45.595Z,57.89
2022-08-17T12:08:45.519Z,57.89
2022-08-17T12:09:45.477Z,57.79
2022-08-17T12:10:45.478Z,57.40
2022-08-17T12:12:04.589Z,57.89
2022-08-17T12:12:46.469Z,56.91
2022-08-17T12:13:45.469Z,57.70
2022-08-17T12:15:09.148Z,57.70
2022-08-17T12:15:46.406Z,57.70
2022-08-17T12:16:45.403Z,57.47
2022-08-17T12:17:45.385Z,57.79
2022-08-17T12:18:45.387Z,57.30
2022-08-17T12:19:45.373Z,57.82
2022-08-17T12:20:45.370Z,58.61
2022-08-17T12:21:45.342Z,58.29
2022-08-17T12:22:45.345Z,58.78
2022-08-17T12:23:45.317Z,58.39
2022-08-17T12:24:45.337Z,58.46
2022-08-17T12:25:45.320Z,57.97
2022-08-17T12:26:45.295Z,58.65
2022-08-17T12:28:04.189Z,59.05
2022-08-17T12:28:46.274Z,58.39
2022-08-17T12:29:45.257Z,58.19
2022-08-17T12:30:45.266Z,58.00
2022-08-17T12:31:45.240Z,58.09
2022-08-17T12:32:45.230Z,58.06
2022-08-17T12:33:45.209Z,57.97
2022-08-17T12:34:45.198Z,58.04
2022-08-17T12:35:45.218Z,57.54
2022-08-17T12:36:45.197Z,58.36
2022-08-17T12:37:45.186Z,58.86
2022-08-17T12:38:45.161Z,58.26
2022-08-17T12:39:45.199Z,57.37
2022-08-17T12:40:45.145Z,57.15
2022-08-17T12:41:45.138Z,57.57
2022-08-17T12:42:45.115Z,57.74
2022-08-17T12:43:45.134Z,57.97
2022-08-17T12:44:50.421Z,57.15
2022-08-17T12:45:46.081Z,57.07
2022-08-17T12:46:45.107Z,57.24
2022-08-17T12:47:45.072Z,56.53
2022-08-17T12:48:59.364Z,56.95
2022-08-17T12:49:46.063Z,57.64
2022-08-17T12:50:45.036Z,57.34
2022-08-17T12:51:45.025Z,56.68
2022-08-17T12:52:45.010Z,57.77
2022-08-17T12:53:45.016Z,57.60
2022-08-17T12:54:45.017Z,58.59
2022-08-17T12:55:45.001Z,58.09
2022-08-17T12:56:44.965Z,58.29
2022-08-17T12:57:44.970Z,58.69
2022-08-17T12:58:44.945Z,58.39
2022-08-17T12:59:45.245Z,57.10
2022-08-17T13:00:45.834Z,57.79
2022-08-17T13:01:45.024Z,57.89
2022-08-17T13:02:44.934Z,57.30
2022-08-17T13:03:44.900Z,58.39
2022-08-17T13:04:44.895Z,58.72
2022-08-17T13:05:44.887Z,58.54
2022-08-17T13:06:44.882Z,59.50
2022-08-17T13:07:44.856Z,58.91
2022-08-17T13:08:44.898Z,59.83
2022-08-17T13:09:44.841Z,60.13
2022-08-17T13:10:44.813Z,59.33
2022-08-17T13:11:44.823Z,60.22
2022-08-17T13:12:44.803Z,60.03
2022-08-17T13:13:44.826Z,59.60
2022-08-17T13:14:44.790Z,59.23
2022-08-17T13:15:45.234Z,59.63
2022-08-17T13:16:44.782Z,60.22
2022-08-17T13:17:44.739Z,60.03
2022-08-17T13:18:44.744Z,60.55
2022-08-17T13:19:44.756Z,60.55
2022-08-17T13:20:44.720Z,60.22
2022-08-17T13:21:44.711Z,60.13
2022-08-17T13:22:44.697Z,59.63
2022-08-17T13:23:50.881Z,60.22
2022-08-17T13:24:45.668Z,60.65
2022-08-17T13:25:44.680Z,59.66
2022-08-17T13:26:44.652Z,60.75
2022-08-17T13:27:44.663Z,60.06
2022-08-17T13:28:44.622Z,60.38
2022-08-17T13:29:44.614Z,60.58
2022-08-17T13:30:44.609Z,60.88
2022-08-17T13:31:52.630Z,61.18
2022-08-17T13:32:45.630Z,61.47
2022-08-17T13:33:45.253Z,61.47
2022-08-17T13:34:44.580Z,61.27
2022-08-17T13:35:48.290Z,61.37
2022-08-17T13:36:44.545Z,61.07
2022-08-17T13:37:44.589Z,61.47
2022-08-17T13:38:44.559Z,61.67
2022-08-17T13:39:44.526Z,61.67
2022-08-17T13:40:44.498Z,61.21
2022-08-17T13:41:44.489Z,61.30
2022-08-17T13:42:52.357Z,61.40
2022-08-17T13:43:44.482Z,61.99
2022-08-17T13:44:44.467Z,61.57
2022-08-17T13:45:44.736Z,61.77
2022-08-17T13:46:44.424Z,61.47
2022-08-17T13:47:45.449Z,62.07
2022-08-17T13:48:44.417Z,61.77
2022-08-17T13:49:48.979Z,61.96
2022-08-17T13:50:44.385Z,62.16
2022-08-17T13:51:44.402Z,61.87
2022-08-17T13:52:46.796Z,62.07
2022-08-17T13:53:45.357Z,62.96
2022-08-17T13:54:44.366Z,62.07
2022-08-17T13:55:44.343Z,62.26
2022-08-17T13:56:44.349Z,61.77
2022-08-17T13:57:44.386Z,62.26
2022-08-17T13:58:44.312Z,62.36
2022-08-17T13:59:54.370Z,62.36
2022-08-17T14:00:45.292Z,62.36
2022-08-17T14:01:44.809Z,62.10
2022-08-17T14:02:44.274Z,63.58
2022-08-17T14:03:44.349Z,62.88
2022-08-17T14:04:44.259Z,62.29
2022-08-17T14:05:44.240Z,63.45
2022-08-17T14:06:52.539Z,63.35
2022-08-17T14:07:45.240Z,63.35
2022-08-17T14:08:44.216Z,63.15
2022-08-17T14:09:44.184Z,61.77
2022-08-17T14:10:44.171Z,62.23
2022-08-17T14:11:44.176Z,61.54
2022-08-17T14:12:44.194Z,62.04
2022-08-17T14:13:44.150Z,60.92
2022-08-17T14:14:44.145Z,61.41
2022-08-17T14:15:55.102Z,61.71
2022-08-17T14:16:45.116Z,61.02
2022-08-17T14:17:44.149Z,60.92
2022-08-17T14:18:56.386Z,61.02
2022-08-17T14:19:45.083Z,60.92
2022-08-17T14:20:44.077Z,61.31
2022-08-17T14:21:44.061Z,61.31
2022-08-17T14:22:44.070Z,61.51
2022-08-17T14:23:49.042Z,61.51
2022-08-17T14:24:45.176Z,61.21
2022-08-17T14:25:44.038Z,60.99
2022-08-17T14:26:44.012Z,60.92
2022-08-17T14:27:53.036Z,61.29
2022-08-17T14:28:54.478Z,61.02
2022-08-17T14:29:44.971Z,61.51
2022-08-17T14:30:43.971Z,61.21
2022-08-17T14:31:53.235Z,61.15
2022-08-17T14:32:44.947Z,61.54
2022-08-17T14:33:43.927Z,61.24
2022-08-17T14:34:43.921Z,61.54
2022-08-17T14:35:43.928Z,62.04
2022-08-17T14:36:48.199Z,61.54
2022-08-17T14:37:43.899Z,61.54
2022-08-17T14:38:43.875Z,61.54
2022-08-17T14:39:43.938Z,61.74
2022-08-17T14:40:43.881Z,62.04
2022-08-17T14:41:43.868Z,62.13
2022-08-17T14:42:43.839Z,62.56
2022-08-17T14:43:43.862Z,62.26
2022-08-17T14:44:43.817Z,62.04
2022-08-17T14:45:43.808Z,62.43
2022-08-17T14:46:43.791Z,62.04
2022-08-17T14:47:43.856Z,61.83
2022-08-17T14:48:43.779Z,62.43
2022-08-17T14:49:43.820Z,63.15
2022-08-17T14:50:43.784Z,63.42
2022-08-17T14:51:44.553Z,62.63
2022-08-17T14:52:43.728Z,62.23
2022-08-17T14:53:43.727Z,63.15
2022-08-17T14:54:45.832Z,62.46
2022-08-17T14:55:43.713Z,63.25
2022-08-17T14:56:45.225Z,63.48
2022-08-17T14:57:43.686Z,63.78
2022-08-17T14:58:43.673Z,63.58
2022-08-17T14:59:43.661Z,63.58
2022-08-17T15:00:43.714Z,63.68
2022-08-17T15:01:43.733Z,63.91
2022-08-17T15:02:43.651Z,64.20
2022-08-17T15:03:43.617Z,64.60
2022-08-17T15:04:45.791Z,63.51
2022-08-17T15:05:43.592Z,64.20
2022-08-17T15:06:43.585Z,64.31
2022-08-17T15:07:43.656Z,64.50
2022-08-17T15:08:43.562Z,63.78
2022-08-17T15:09:43.551Z,63.78
2022-08-17T15:10:43.563Z,63.81
2022-08-17T15:11:43.551Z,63.88
2022-08-17T15:12:43.528Z,64.60
2022-08-17T15:13:52.807Z,64.17
2022-08-17T15:14:44.493Z,64.17
2022-08-17T15:15:43.506Z,63.78
2022-08-17T15:16:43.476Z,64.07
2022-08-17T15:17:45.212Z,64.07
2022-08-17T15:18:43.456Z,63.98
2022-08-17T15:19:43.461Z,63.58
2022-08-17T15:20:43.456Z,63.98
2022-08-17T15:21:43.427Z,64.07
2022-08-17T15:22:43.406Z,63.88
2022-08-17T15:23:43.568Z,63.58
2022-08-17T15:24:43.389Z,63.18
2022-08-17T15:25:44.045Z,63.48
2022-08-17T15:26:43.373Z,63.58
2022-08-17T15:27:43.379Z,62.59
2022-08-17T15:28:43.349Z,62.79
2022-08-17T15:29:43.334Z,63.48
2022-08-17T15:30:43.388Z,63.28
2022-08-17T15:31:43.317Z,63.39
2022-08-17T15:32:45.661Z,63.09
2022-08-17T15:33:44.293Z,63.28
2022-08-17T15:34:43.280Z,62.88
2022-08-17T15:35:43.271Z,63.02
2022-08-17T15:36:45.491Z,63.51
2022-08-17T15:37:44.341Z,63.91
2022-08-17T15:38:44.488Z,64.01
2022-08-17T15:39:43.248Z,63.91
2022-08-17T15:40:43.236Z,63.81
2022-08-17T15:41:43.200Z,63.91
2022-08-17T15:42:43.212Z,63.61
2022-08-17T15:43:43.207Z,64.50
2022-08-17T15:44:43.186Z,64.20
2022-08-17T15:45:43.169Z,63.12
2022-08-17T15:46:43.186Z,63.02
2022-08-17T15:47:43.149Z,62.02
2022-08-17T15:48:43.155Z,62.32
2022-08-17T15:49:43.140Z,62.23
2022-08-17T15:50:43.109Z,63.12
2022-08-17T15:51:43.097Z,63.61
2022-08-17T15:52:43.084Z,63.21
2022-08-17T15:53:43.103Z,62.92
2022-08-17T15:54:45.222Z,61.73
2022-08-17T15:55:43.095Z,62.23
2022-08-17T15:56:43.064Z,62.62
2022-08-17T15:57:43.031Z,62.12
2022-08-17T15:58:43.025Z,61.53
2022-08-17T15:59:43.010Z,61.63
2022-08-17T16:00:53.031Z,62.52
2022-08-17T16:03:14.405Z,62.62
2022-08-17T16:03:44.413Z,62.95
2022-08-17T16:03:57.348Z,63.12
2022-08-17T16:04:44.366Z,63.54
2022-08-17T16:05:42.995Z,63.45
2022-08-17T16:06:42.946Z,63.94
2022-08-17T16:07:42.916Z,63.05
2022-08-17T16:08:42.937Z,63.74
2022-08-17T16:09:42.904Z,63.91
2022-08-17T16:10:42.905Z,63.54
2022-08-17T16:11:42.873Z,63.02
2022-08-17T16:12:42.895Z,62.92
2022-08-17T16:13:42.873Z,63.12
2022-08-17T16:14:43.860Z,63.21
2022-08-17T16:15:42.831Z,63.51
2022-08-17T16:16:42.826Z,63.21
2022-08-17T16:17:42.818Z,61.53
2022-08-17T16:18:42.796Z,61.76
2022-08-17T16:19:42.810Z,62.82
2022-08-17T16:20:42.798Z,62.52
2022-08-17T16:21:43.391Z,62.32
2022-08-17T16:22:42.764Z,61.46
2022-08-17T16:23:42.778Z,61.66
2022-08-17T16:24:47.670Z,61.56
2022-08-17T16:25:52.858Z,62.02
2022-08-17T16:26:43.720Z,63.05
2022-08-17T16:27:42.721Z,62.92
2022-08-17T16:28:42.698Z,59.38
2022-08-17T16:29:42.670Z,59.58
2022-08-17T16:30:42.676Z,59.97
2022-08-17T16:31:42.650Z,59.78
2022-08-17T16:32:42.660Z,60.27
2022-08-17T16:33:42.621Z,60.86
2022-08-17T16:34:43.607Z,61.36
2022-08-17T16:35:42.626Z,61.07
2022-08-17T16:36:42.605Z,60.37
2022-08-17T16:37:44.651Z,60.96
2022-08-17T16:38:42.563Z,61.26
2022-08-17T16:39:42.614Z,61.46
2022-08-17T16:40:42.574Z,61.16
2022-08-17T16:41:42.564Z,61.26
2022-08-17T16:42:42.564Z,60.40
2022-08-17T16:43:42.552Z,61.07
2022-08-17T16:44:42.498Z,60.99
2022-08-17T16:45:42.518Z,61.10
2022-08-17T16:46:45.565Z,61.29
2022-08-17T16:47:42.493Z,61.39
2022-08-17T16:48:42.464Z,61.76
2022-08-17T16:49:42.465Z,61.10
2022-08-17T16:50:42.436Z,62.08
2022-08-17T16:51:43.424Z,62.98
2022-08-17T16:52:42.434Z,61.69
2022-08-17T16:53:42.402Z,61.29
2022-08-17T16:54:42.435Z,61.19
2022-08-17T16:55:42.399Z,61.69
2022-08-17T16:56:42.375Z,61.39
2022-08-17T16:57:48.556Z,61.59
2022-08-17T16:58:43.374Z,62.38
2022-08-17T16:59:43.758Z,62.29
2022-08-17T17:00:42.422Z,61.89
2022-08-17T17:01:42.308Z,62.78
2022-08-17T17:02:42.296Z,62.78
2022-08-17T17:03:42.286Z,63.08
2022-08-17T17:04:42.309Z,62.78
2022-08-17T17:05:42.290Z,62.08
2022-08-17T17:06:42.257Z,62.78
2022-08-17T17:07:42.243Z,63.18
2022-08-17T17:08:44.601Z,62.78
2022-08-17T17:09:42.219Z,63.18
2022-08-17T17:10:42.224Z,61.22
2022-08-17T17:11:42.226Z,61.79
2022-08-17T17:13:02.162Z,61.69
2022-08-17T17:13:43.194Z,62.29
2022-08-17T17:14:42.167Z,63.28
2022-08-17T17:15:42.177Z,62.58
2022-08-17T17:16:42.165Z,62.08
2022-08-17T17:17:42.145Z,63.28
2022-08-17T17:18:42.144Z,63.70
2022-08-17T17:19:42.983Z,62.51
2022-08-17T17:20:42.128Z,62.12
2022-08-17T17:21:42.096Z,62.02
2022-08-17T17:22:42.081Z,62.41